sensor_id;sensor_type;location;lat;lon;timestamp;P1;durP1;ratioP1;P2;durP2;ratioP2
62931;SDS011;49037;41.898;25.004;2023-02-15T00:00:01;10.38;;;4.63;;
62931;SDS011;49037;41.898;25.004;2023-02-15T00:02:28;8.02;;;5.00;;
62931;SDS011;49037;41.898;25.004;2023-02-15T00:04:54;9.80;;;4.63;;
62931;SDS011;49037;41.898;25.004;2023-02-15T00:07:21;10.52;;;4.90;;
62931;SDS011;49037;41.898;25.004;2023-02-15T00:09:46;10.65;;;5.05;;
62931;SDS011;49037;41.898;25.004;2023-02-15T00:12:12;12.32;;;5.65;;
62931;SDS011;49037;41.898;25.004;2023-02-15T00:14:37;12.57;;;5.05;;
62931;SDS011;49037;41.898;25.004;2023-02-15T00:17:03;9.82;;;5.20;;
62931;SDS011;49037;41.898;25.004;2023-02-15T00:19:29;6.35;;;4.10;;
62931;SDS011;49037;41.898;25.004;2023-02-15T00:21:54;7.90;;;4.90;;
62931;SDS011;49037;41.898;25.004;2023-02-15T00:24:20;8.05;;;3.92;;
62931;SDS011;49037;41.898;25.004;2023-02-15T00:26:46;9.38;;;4.53;;
62931;SDS011;49037;41.898;25.004;2023-02-15T00:29:13;8.38;;;4.15;;
62931;SDS011;49037;41.898;25.004;2023-02-15T00:31:40;9.02;;;4.70;;
62931;SDS011;49037;41.898;25.004;2023-02-15T00:34:19;10.50;;;5.10;;
62931;SDS011;49037;41.898;25.004;2023-02-15T00:36:46;9.70;;;4.97;;
62931;SDS011;49037;41.898;25.004;2023-02-15T00:39:12;8.75;;;4.82;;
62931;SDS011;49037;41.898;25.004;2023-02-15T00:41:38;9.73;;;3.80;;
62931;SDS011;49037;41.898;25.004;2023-02-15T00:44:04;5.47;;;2.72;;
62931;SDS011;49037;41.898;25.004;2023-02-15T00:46:30;11.40;;;5.20;;
62931;SDS011;49037;41.898;25.004;2023-02-15T00:48:56;8.25;;;3.95;;
62931;SDS011;49037;41.898;25.004;2023-02-15T00:51:22;10.02;;;4.90;;
62931;SDS011;49037;41.898;25.004;2023-02-15T00:53:48;11.10;;;4.80;;
62931;SDS011;49037;41.898;25.004;2023-02-15T00:56:14;10.73;;;5.38;;
62931;SDS011;49037;41.898;25.004;2023-02-15T00:58:39;12.63;;;6.25;;
62931;SDS011;49037;41.898;25.004;2023-02-15T01:01:06;12.07;;;5.35;;
62931;SDS011;49037;41.898;25.004;2023-02-15T01:03:33;9.07;;;4.57;;
62931;SDS011;49037;41.898;25.004;2023-02-15T01:05:59;6.97;;;3.85;;
62931;SDS011;49037;41.898;25.004;2023-02-15T01:08:25;9.68;;;5.15;;
62931;SDS011;49037;41.898;25.004;2023-02-15T01:10:51;8.57;;;4.50;;
62931;SDS011;49037;41.898;25.004;2023-02-15T01:13:17;9.73;;;4.78;;
62931;SDS011;49037;41.898;25.004;2023-02-15T01:15:43;5.55;;;3.42;;
62931;SDS011;49037;41.898;25.004;2023-02-15T01:18:09;8.55;;;4.07;;
62931;SDS011;49037;41.898;25.004;2023-02-15T01:20:37;6.75;;;4.70;;
62931;SDS011;49037;41.898;25.004;2023-02-15T01:23:06;7.22;;;3.35;;
62931;SDS011;49037;41.898;25.004;2023-02-15T01:25:32;9.75;;;5.38;;
62931;SDS011;49037;41.898;25.004;2023-02-15T01:27:59;8.40;;;4.30;;
62931;SDS011;49037;41.898;25.004;2023-02-15T01:30:24;8.98;;;4.90;;
62931;SDS011;49037;41.898;25.004;2023-02-15T01:32:50;9.98;;;5.50;;
62931;SDS011;49037;41.898;25.004;2023-02-15T01:35:15;8.65;;;4.60;;
62931;SDS011;49037;41.898;25.004;2023-02-15T01:37:41;11.05;;;4.75;;
62931;SDS011;49037;41.898;25.004;2023-02-15T01:40:07;7.38;;;4.60;;
62931;SDS011;49037;41.898;25.004;2023-02-15T01:42:37;9.60;;;5.03;;
62931;SDS011;49037;41.898;25.004;2023-02-15T01:45:03;9.02;;;4.43;;
62931;SDS011;49037;41.898;25.004;2023-02-15T01:52:49;8.43;;;4.50;;
62931;SDS011;49037;41.898;25.004;2023-02-15T01:57:46;7.55;;;4.30;;
62931;SDS011;49037;41.898;25.004;2023-02-15T02:00:12;9.07;;;4.35;;
62931;SDS011;49037;41.898;25.004;2023-02-15T02:02:39;9.05;;;4.90;;
62931;SDS011;49037;41.898;25.004;2023-02-15T02:05:07;7.10;;;4.18;;
62931;SDS011;49037;41.898;25.004;2023-02-15T02:07:37;6.65;;;3.72;;
62931;SDS011;49037;41.898;25.004;2023-02-15T02:10:06;11.55;;;5.13;;
62931;SDS011;49037;41.898;25.004;2023-02-15T02:12:34;10.73;;;5.30;;
62931;SDS011;49037;41.898;25.004;2023-02-15T02:15:02;13.05;;;5.10;;
62931;SDS011;49037;41.898;25.004;2023-02-15T02:18:03;7.47;;;3.97;;
62931;SDS011;49037;41.898;25.004;2023-02-15T02:23:29;8.85;;;4.78;;
62931;SDS011;49037;41.898;25.004;2023-02-15T02:34:25;9.55;;;4.85;;
62931;SDS011;49037;41.898;25.004;2023-02-15T02:37:43;7.95;;;4.50;;
62931;SDS011;49037;41.898;25.004;2023-02-15T02:48:55;6.30;;;4.10;;
62931;SDS011;49037;41.898;25.004;2023-02-15T02:51:21;10.48;;;4.93;;
62931;SDS011;49037;41.898;25.004;2023-02-15T02:53:51;7.80;;;4.30;;
62931;SDS011;49037;41.898;25.004;2023-02-15T02:56:30;10.07;;;4.68;;
62931;SDS011;49037;41.898;25.004;2023-02-15T02:59:15;11.88;;;5.50;;
62931;SDS011;49037;41.898;25.004;2023-02-15T03:01:46;9.85;;;4.80;;
62931;SDS011;49037;41.898;25.004;2023-02-15T03:04:21;11.10;;;5.13;;
62931;SDS011;49037;41.898;25.004;2023-02-15T03:06:57;9.35;;;5.28;;
62931;SDS011;49037;41.898;25.004;2023-02-15T03:09:27;9.00;;;5.00;;
62931;SDS011;49037;41.898;25.004;2023-02-15T03:12:08;7.60;;;3.72;;
62931;SDS011;49037;41.898;25.004;2023-02-15T03:14:40;8.88;;;4.18;;
62931;SDS011;49037;41.898;25.004;2023-02-15T03:17:07;12.85;;;5.40;;
62931;SDS011;49037;41.898;25.004;2023-02-15T03:19:35;8.10;;;4.15;;
62931;SDS011;49037;41.898;25.004;2023-02-15T03:22:04;9.02;;;4.75;;
62931;SDS011;49037;41.898;25.004;2023-02-15T03:24:37;10.20;;;5.10;;
62931;SDS011;49037;41.898;25.004;2023-02-15T03:27:07;7.78;;;4.40;;
62931;SDS011;49037;41.898;25.004;2023-02-15T03:29:38;13.65;;;5.30;;
62931;SDS011;49037;41.898;25.004;2023-02-15T03:32:04;11.95;;;5.65;;
62931;SDS011;49037;41.898;25.004;2023-02-15T03:34:35;7.68;;;4.03;;
62931;SDS011;49037;41.898;25.004;2023-02-15T03:43:21;10.57;;;4.57;;
62931;SDS011;49037;41.898;25.004;2023-02-15T03:45:56;11.27;;;5.35;;
62931;SDS011;49037;41.898;25.004;2023-02-15T03:48:27;10.50;;;5.25;;
62931;SDS011;49037;41.898;25.004;2023-02-15T03:50:57;11.23;;;4.63;;
62931;SDS011;49037;41.898;25.004;2023-02-15T03:53:45;10.07;;;4.93;;
62931;SDS011;49037;41.898;25.004;2023-02-15T03:56:13;12.02;;;5.10;;
62931;SDS011;49037;41.898;25.004;2023-02-15T03:58:39;10.52;;;4.70;;
62931;SDS011;49037;41.898;25.004;2023-02-15T04:01:27;7.50;;;4.60;;
62931;SDS011;49037;41.898;25.004;2023-02-15T04:04:24;7.82;;;4.03;;
62931;SDS011;49037;41.898;25.004;2023-02-15T04:06:56;12.68;;;4.80;;
62931;SDS011;49037;41.898;25.004;2023-02-15T04:09:22;12.82;;;6.53;;
62931;SDS011;49037;41.898;25.004;2023-02-15T04:12:06;9.32;;;4.88;;
62931;SDS011;49037;41.898;25.004;2023-02-15T04:14:32;12.25;;;4.80;;
62931;SDS011;49037;41.898;25.004;2023-02-15T04:17:16;10.07;;;4.45;;
62931;SDS011;49037;41.898;25.004;2023-02-15T04:19:41;12.40;;;6.32;;
62931;SDS011;49037;41.898;25.004;2023-02-15T04:22:25;13.38;;;5.95;;
62931;SDS011;49037;41.898;25.004;2023-02-15T04:25:09;10.23;;;4.95;;
62931;SDS011;49037;41.898;25.004;2023-02-15T04:27:38;9.27;;;5.22;;
62931;SDS011;49037;41.898;25.004;2023-02-15T04:30:08;13.45;;;5.30;;
62931;SDS011;49037;41.898;25.004;2023-02-15T04:32:34;6.82;;;4.15;;
62931;SDS011;49037;41.898;25.004;2023-02-15T04:35:00;11.82;;;5.68;;
62931;SDS011;49037;41.898;25.004;2023-02-15T04:37:26;10.48;;;4.82;;
62931;SDS011;49037;41.898;25.004;2023-02-15T04:39:51;13.00;;;5.50;;
62931;SDS011;49037;41.898;25.004;2023-02-15T04:42:17;8.70;;;4.72;;
62931;SDS011;49037;41.898;25.004;2023-02-15T04:44:42;8.93;;;4.43;;
62931;SDS011;49037;41.898;25.004;2023-02-15T04:47:08;10.30;;;5.10;;
62931;SDS011;49037;41.898;25.004;2023-02-15T04:49:33;9.55;;;4.32;;
62931;SDS011;49037;41.898;25.004;2023-02-15T04:51:59;7.30;;;4.70;;
62931;SDS011;49037;41.898;25.004;2023-02-15T04:54:24;11.02;;;5.50;;
62931;SDS011;49037;41.898;25.004;2023-02-15T04:56:50;11.52;;;5.60;;
62931;SDS011;49037;41.898;25.004;2023-02-15T04:59:15;12.07;;;5.65;;
62931;SDS011;49037;41.898;25.004;2023-02-15T05:01:41;12.68;;;5.72;;
62931;SDS011;49037;41.898;25.004;2023-02-15T05:04:06;8.10;;;4.60;;
62931;SDS011;49037;41.898;25.004;2023-02-15T05:06:32;12.88;;;5.53;;
62931;SDS011;49037;41.898;25.004;2023-02-15T05:08:57;8.10;;;4.15;;
62931;SDS011;49037;41.898;25.004;2023-02-15T05:11:26;11.88;;;5.95;;
62931;SDS011;49037;41.898;25.004;2023-02-15T05:13:51;16.70;;;6.30;;
62931;SDS011;49037;41.898;25.004;2023-02-15T05:16:17;9.85;;;4.57;;
62931;SDS011;49037;41.898;25.004;2023-02-15T05:18:43;6.88;;;3.90;;
62931;SDS011;49037;41.898;25.004;2023-02-15T05:21:08;11.98;;;4.60;;
62931;SDS011;49037;41.898;25.004;2023-02-15T05:23:34;12.38;;;5.50;;
62931;SDS011;49037;41.898;25.004;2023-02-15T05:26:00;11.10;;;5.10;;
62931;SDS011;49037;41.898;25.004;2023-02-15T05:28:44;9.60;;;4.75;;
62931;SDS011;49037;41.898;25.004;2023-02-15T05:31:14;13.80;;;5.50;;
62931;SDS011;49037;41.898;25.004;2023-02-15T05:33:42;11.45;;;5.53;;
62931;SDS011;49037;41.898;25.004;2023-02-15T05:36:08;10.57;;;5.30;;
62931;SDS011;49037;41.898;25.004;2023-02-15T05:38:34;6.55;;;3.78;;
62931;SDS011;49037;41.898;25.004;2023-02-15T05:41:02;10.27;;;4.90;;
62931;SDS011;49037;41.898;25.004;2023-02-15T05:43:28;12.02;;;5.50;;
62931;SDS011;49037;41.898;25.004;2023-02-15T05:45:54;8.50;;;3.83;;
62931;SDS011;49037;41.898;25.004;2023-02-15T05:48:20;8.68;;;4.30;;
62931;SDS011;49037;41.898;25.004;2023-02-15T05:50:56;11.20;;;5.72;;
62931;SDS011;49037;41.898;25.004;2023-02-15T05:53:23;12.75;;;5.88;;
62931;SDS011;49037;41.898;25.004;2023-02-15T05:55:48;8.68;;;4.95;;
62931;SDS011;49037;41.898;25.004;2023-02-15T05:58:14;12.20;;;6.25;;
62931;SDS011;49037;41.898;25.004;2023-02-15T06:00:39;9.63;;;4.68;;
62931;SDS011;49037;41.898;25.004;2023-02-15T06:03:05;11.35;;;5.35;;
62931;SDS011;49037;41.898;25.004;2023-02-15T06:05:30;14.20;;;6.47;;
62931;SDS011;49037;41.898;25.004;2023-02-15T06:07:56;12.20;;;6.00;;
62931;SDS011;49037;41.898;25.004;2023-02-15T06:10:21;11.18;;;5.70;;
62931;SDS011;49037;41.898;25.004;2023-02-15T06:12:46;12.23;;;6.32;;
62931;SDS011;49037;41.898;25.004;2023-02-15T06:15:12;8.55;;;4.55;;
62931;SDS011;49037;41.898;25.004;2023-02-15T06:17:40;14.60;;;5.60;;
62931;SDS011;49037;41.898;25.004;2023-02-15T06:20:07;9.15;;;5.63;;
62931;SDS011;49037;41.898;25.004;2023-02-15T06:22:33;11.38;;;5.82;;
62931;SDS011;49037;41.898;25.004;2023-02-15T06:24:58;14.95;;;7.05;;
62931;SDS011;49037;41.898;25.004;2023-02-15T06:27:24;15.90;;;7.38;;
62931;SDS011;49037;41.898;25.004;2023-02-15T06:29:49;16.92;;;6.88;;
62931;SDS011;49037;41.898;25.004;2023-02-15T06:32:15;10.50;;;5.07;;
62931;SDS011;49037;41.898;25.004;2023-02-15T06:34:40;8.10;;;4.22;;
62931;SDS011;49037;41.898;25.004;2023-02-15T06:37:06;15.10;;;6.20;;
62931;SDS011;49037;41.898;25.004;2023-02-15T06:39:33;16.92;;;7.28;;
62931;SDS011;49037;41.898;25.004;2023-02-15T06:41:58;17.02;;;6.97;;
62931;SDS011;49037;41.898;25.004;2023-02-15T06:44:24;12.35;;;6.30;;
62931;SDS011;49037;41.898;25.004;2023-02-15T06:46:49;13.70;;;7.70;;
62931;SDS011;49037;41.898;25.004;2023-02-15T06:49:15;11.82;;;7.80;;
62931;SDS011;49037;41.898;25.004;2023-02-15T06:51:40;14.40;;;8.88;;
62931;SDS011;49037;41.898;25.004;2023-02-15T06:54:06;18.23;;;8.43;;
62931;SDS011;49037;41.898;25.004;2023-02-15T06:56:31;11.55;;;6.15;;
62931;SDS011;49037;41.898;25.004;2023-02-15T06:58:57;13.77;;;6.30;;
62931;SDS011;49037;41.898;25.004;2023-02-15T07:01:22;11.65;;;6.57;;
62931;SDS011;49037;41.898;25.004;2023-02-15T07:03:48;11.40;;;5.57;;
62931;SDS011;49037;41.898;25.004;2023-02-15T07:06:13;13.63;;;6.43;;
62931;SDS011;49037;41.898;25.004;2023-02-15T07:08:39;7.82;;;3.05;;
62931;SDS011;49037;41.898;25.004;2023-02-15T07:11:05;14.32;;;5.47;;
62931;SDS011;49037;41.898;25.004;2023-02-15T07:13:50;10.40;;;5.30;;
62931;SDS011;49037;41.898;25.004;2023-02-15T07:16:17;8.48;;;3.97;;
62931;SDS011;49037;41.898;25.004;2023-02-15T07:18:43;20.25;;;8.63;;
62931;SDS011;49037;41.898;25.004;2023-02-15T07:21:08;19.50;;;8.73;;
62931;SDS011;49037;41.898;25.004;2023-02-15T07:23:37;18.92;;;11.15;;
62931;SDS011;49037;41.898;25.004;2023-02-15T07:26:03;11.80;;;6.53;;
62931;SDS011;49037;41.898;25.004;2023-02-15T07:28:32;9.55;;;4.57;;
62931;SDS011;49037;41.898;25.004;2023-02-15T07:31:00;10.05;;;5.20;;
62931;SDS011;49037;41.898;25.004;2023-02-15T07:33:27;10.80;;;4.90;;
62931;SDS011;49037;41.898;25.004;2023-02-15T07:35:54;14.68;;;6.75;;
62931;SDS011;49037;41.898;25.004;2023-02-15T07:38:26;14.90;;;6.63;;
62931;SDS011;49037;41.898;25.004;2023-02-15T07:41:01;12.15;;;6.78;;
62931;SDS011;49037;41.898;25.004;2023-02-15T07:43:29;16.90;;;7.40;;
62931;SDS011;49037;41.898;25.004;2023-02-15T07:46:08;19.77;;;8.85;;
62931;SDS011;49037;41.898;25.004;2023-02-15T07:48:36;19.25;;;8.80;;
62931;SDS011;49037;41.898;25.004;2023-02-15T07:51:03;23.75;;;12.02;;
62931;SDS011;49037;41.898;25.004;2023-02-15T07:53:30;19.88;;;9.23;;
62931;SDS011;49037;41.898;25.004;2023-02-15T07:56:00;23.40;;;10.60;;
62931;SDS011;49037;41.898;25.004;2023-02-15T07:58:26;24.33;;;11.45;;
62931;SDS011;49037;41.898;25.004;2023-02-15T08:01:12;35.08;;;13.70;;
62931;SDS011;49037;41.898;25.004;2023-02-15T08:03:38;29.15;;;12.88;;
62931;SDS011;49037;41.898;25.004;2023-02-15T08:06:04;25.33;;;11.82;;
62931;SDS011;49037;41.898;25.004;2023-02-15T08:08:29;25.92;;;11.57;;
62931;SDS011;49037;41.898;25.004;2023-02-15T08:11:01;29.00;;;13.13;;
62931;SDS011;49037;41.898;25.004;2023-02-15T08:14:00;19.88;;;9.93;;
62931;SDS011;49037;41.898;25.004;2023-02-15T08:16:38;21.45;;;10.60;;
62931;SDS011;49037;41.898;25.004;2023-02-15T08:19:07;23.73;;;10.07;;
62931;SDS011;49037;41.898;25.004;2023-02-15T08:21:43;25.40;;;12.00;;
62931;SDS011;49037;41.898;25.004;2023-02-15T08:24:14;23.02;;;10.75;;
62931;SDS011;49037;41.898;25.004;2023-02-15T08:26:41;26.27;;;11.77;;
62931;SDS011;49037;41.898;25.004;2023-02-15T08:29:10;25.27;;;11.70;;
62931;SDS011;49037;41.898;25.004;2023-02-15T08:31:35;22.88;;;10.25;;
62931;SDS011;49037;41.898;25.004;2023-02-15T08:34:02;26.08;;;12.77;;
62931;SDS011;49037;41.898;25.004;2023-02-15T08:36:29;24.77;;;12.50;;
62931;SDS011;49037;41.898;25.004;2023-02-15T08:39:00;22.48;;;11.30;;
62931;SDS011;49037;41.898;25.004;2023-02-15T08:41:28;22.80;;;10.93;;
62931;SDS011;49037;41.898;25.004;2023-02-15T08:43:56;22.33;;;11.07;;
62931;SDS011;49037;41.898;25.004;2023-02-15T08:46:24;27.02;;;11.40;;
62931;SDS011;49037;41.898;25.004;2023-02-15T08:48:51;22.02;;;10.98;;
62931;SDS011;49037;41.898;25.004;2023-02-15T08:51:18;20.13;;;9.90;;
62931;SDS011;49037;41.898;25.004;2023-02-15T08:53:46;21.70;;;9.23;;
62931;SDS011;49037;41.898;25.004;2023-02-15T08:56:17;22.60;;;12.80;;
62931;SDS011;49037;41.898;25.004;2023-02-15T08:58:44;23.63;;;12.07;;
62931;SDS011;49037;41.898;25.004;2023-02-15T09:03:36;20.05;;;9.95;;
62931;SDS011;49037;41.898;25.004;2023-02-15T09:06:02;24.42;;;12.38;;
62931;SDS011;49037;41.898;25.004;2023-02-15T09:08:27;21.95;;;9.90;;
62931;SDS011;49037;41.898;25.004;2023-02-15T09:10:53;20.33;;;9.48;;
62931;SDS011;49037;41.898;25.004;2023-02-15T09:13:19;19.13;;;9.85;;
62931;SDS011;49037;41.898;25.004;2023-02-15T09:15:45;19.20;;;9.43;;
62931;SDS011;49037;41.898;25.004;2023-02-15T09:18:11;19.48;;;10.18;;
62931;SDS011;49037;41.898;25.004;2023-02-15T09:20:42;18.02;;;9.40;;
62931;SDS011;49037;41.898;25.004;2023-02-15T09:23:08;19.63;;;7.95;;
62931;SDS011;49037;41.898;25.004;2023-02-15T09:25:33;20.58;;;10.90;;
62931;SDS011;49037;41.898;25.004;2023-02-15T09:27:59;19.63;;;10.48;;
62931;SDS011;49037;41.898;25.004;2023-02-15T09:30:24;20.55;;;10.55;;
62931;SDS011;49037;41.898;25.004;2023-02-15T09:32:50;18.58;;;10.65;;
62931;SDS011;49037;41.898;25.004;2023-02-15T09:35:15;20.52;;;10.60;;
62931;SDS011;49037;41.898;25.004;2023-02-15T09:37:41;19.70;;;11.25;;
62931;SDS011;49037;41.898;25.004;2023-02-15T09:40:06;22.00;;;10.85;;
62931;SDS011;49037;41.898;25.004;2023-02-15T09:56:08;23.60;;;11.05;;
62931;SDS011;49037;41.898;25.004;2023-02-15T10:04:04;25.05;;;12.05;;
62931;SDS011;49037;41.898;25.004;2023-02-15T10:10:05;25.83;;;12.52;;
62931;SDS011;49037;41.898;25.004;2023-02-15T10:12:53;20.88;;;11.13;;
62931;SDS011;49037;41.898;25.004;2023-02-15T10:15:36;20.08;;;10.40;;
62931;SDS011;49037;41.898;25.004;2023-02-15T10:18:31;12.93;;;7.13;;
62931;SDS011;49037;41.898;25.004;2023-02-15T10:32:58;19.15;;;10.48;;
62931;SDS011;49037;41.898;25.004;2023-02-15T10:38:20;22.67;;;11.65;;
62931;SDS011;49037;41.898;25.004;2023-02-15T10:48:03;22.30;;;10.77;;
62931;SDS011;49037;41.898;25.004;2023-02-15T11:01:49;19.92;;;10.18;;
62931;SDS011;49037;41.898;25.004;2023-02-15T11:06:48;20.20;;;10.23;;
62931;SDS011;49037;41.898;25.004;2023-02-15T11:09:17;19.73;;;11.60;;
62931;SDS011;49037;41.898;25.004;2023-02-15T11:11:48;19.30;;;9.73;;
62931;SDS011;49037;41.898;25.004;2023-02-15T11:14:17;18.73;;;10.27;;
62931;SDS011;49037;41.898;25.004;2023-02-15T11:17:59;20.85;;;11.00;;
62931;SDS011;49037;41.898;25.004;2023-02-15T11:20:31;14.50;;;7.85;;
62931;SDS011;49037;41.898;25.004;2023-02-15T11:23:02;20.60;;;11.05;;
62931;SDS011;49037;41.898;25.004;2023-02-15T11:25:39;19.55;;;10.65;;
62931;SDS011;49037;41.898;25.004;2023-02-15T11:30:44;22.05;;;11.88;;
62931;SDS011;49037;41.898;25.004;2023-02-15T11:33:29;20.42;;;10.43;;
62931;SDS011;49037;41.898;25.004;2023-02-15T11:36:07;19.48;;;10.15;;
62931;SDS011;49037;41.898;25.004;2023-02-15T11:38:37;20.42;;;9.90;;
62931;SDS011;49037;41.898;25.004;2023-02-15T11:41:11;22.83;;;13.27;;
62931;SDS011;49037;41.898;25.004;2023-02-15T11:45:44;22.27;;;11.27;;
62931;SDS011;49037;41.898;25.004;2023-02-15T11:49:59;20.98;;;11.30;;
62931;SDS011;49037;41.898;25.004;2023-02-15T11:52:36;22.25;;;11.07;;
62931;SDS011;49037;41.898;25.004;2023-02-15T11:55:01;22.70;;;11.73;;
62931;SDS011;49037;41.898;25.004;2023-02-15T12:01:33;21.38;;;10.07;;
62931;SDS011;49037;41.898;25.004;2023-02-15T12:05:03;21.80;;;12.65;;
62931;SDS011;49037;41.898;25.004;2023-02-15T12:10:19;19.55;;;10.18;;
62931;SDS011;49037;41.898;25.004;2023-02-15T12:15:44;19.98;;;9.82;;
62931;SDS011;49037;41.898;25.004;2023-02-15T12:21:03;20.52;;;10.38;;
62931;SDS011;49037;41.898;25.004;2023-02-15T12:23:48;19.63;;;10.85;;
62931;SDS011;49037;41.898;25.004;2023-02-15T12:26:23;18.33;;;9.40;;
62931;SDS011;49037;41.898;25.004;2023-02-15T12:29:00;17.92;;;9.90;;
62931;SDS011;49037;41.898;25.004;2023-02-15T12:31:41;20.60;;;10.63;;
62931;SDS011;49037;41.898;25.004;2023-02-15T12:34:24;17.90;;;9.38;;
62931;SDS011;49037;41.898;25.004;2023-02-15T12:36:53;19.10;;;9.25;;
62931;SDS011;49037;41.898;25.004;2023-02-15T12:39:25;17.20;;;9.10;;
62931;SDS011;49037;41.898;25.004;2023-02-15T12:44:22;20.85;;;10.15;;
62931;SDS011;49037;41.898;25.004;2023-02-15T12:49:41;24.17;;;12.20;;
62931;SDS011;49037;41.898;25.004;2023-02-15T12:54:48;22.30;;;10.45;;
62931;SDS011;49037;41.898;25.004;2023-02-15T12:59:53;18.77;;;9.80;;
62931;SDS011;49037;41.898;25.004;2023-02-15T13:02:28;22.30;;;11.13;;
62931;SDS011;49037;41.898;25.004;2023-02-15T13:04:57;21.02;;;11.27;;
62931;SDS011;49037;41.898;25.004;2023-02-15T13:07:58;21.20;;;11.57;;
62931;SDS011;49037;41.898;25.004;2023-02-15T13:10:34;18.50;;;9.80;;
62931;SDS011;49037;41.898;25.004;2023-02-15T13:13:02;16.90;;;9.15;;
62931;SDS011;49037;41.898;25.004;2023-02-15T13:15:46;20.08;;;10.50;;
62931;SDS011;49037;41.898;25.004;2023-02-15T13:18:31;19.15;;;9.70;;
62931;SDS011;49037;41.898;25.004;2023-02-15T13:21:04;18.52;;;9.23;;
62931;SDS011;49037;41.898;25.004;2023-02-15T13:23:38;19.73;;;10.68;;
62931;SDS011;49037;41.898;25.004;2023-02-15T13:26:08;23.58;;;11.60;;
62931;SDS011;49037;41.898;25.004;2023-02-15T13:28:42;19.58;;;11.25;;
62931;SDS011;49037;41.898;25.004;2023-02-15T13:31:17;18.92;;;9.98;;
62931;SDS011;49037;41.898;25.004;2023-02-15T13:33:48;16.38;;;8.95;;
62931;SDS011;49037;41.898;25.004;2023-02-15T13:36:29;20.10;;;10.02;;
62931;SDS011;49037;41.898;25.004;2023-02-15T13:42:04;20.75;;;10.70;;
62931;SDS011;49037;41.898;25.004;2023-02-15T13:47:44;20.92;;;10.45;;
62931;SDS011;49037;41.898;25.004;2023-02-15T13:55:52;19.73;;;10.38;;
62931;SDS011;49037;41.898;25.004;2023-02-15T14:01:09;18.00;;;8.80;;
62931;SDS011;49037;41.898;25.004;2023-02-15T14:12:24;21.73;;;10.80;;
62931;SDS011;49037;41.898;25.004;2023-02-15T14:18:12;20.08;;;10.30;;
62931;SDS011;49037;41.898;25.004;2023-02-15T14:26:00;16.30;;;9.05;;
62931;SDS011;49037;41.898;25.004;2023-02-15T14:28:37;17.20;;;9.48;;
62931;SDS011;49037;41.898;25.004;2023-02-15T14:31:11;16.80;;;9.40;;
62931;SDS011;49037;41.898;25.004;2023-02-15T14:33:39;19.15;;;9.48;;
62931;SDS011;49037;41.898;25.004;2023-02-15T14:36:11;21.80;;;10.70;;
62931;SDS011;49037;41.898;25.004;2023-02-15T14:41:12;21.05;;;10.77;;
62931;SDS011;49037;41.898;25.004;2023-02-15T14:43:46;18.27;;;8.77;;
62931;SDS011;49037;41.898;25.004;2023-02-15T14:46:27;16.98;;;9.55;;
62931;SDS011;49037;41.898;25.004;2023-02-15T14:56:43;17.75;;;8.75;;
62931;SDS011;49037;41.898;25.004;2023-02-15T15:04:32;13.35;;;7.32;;
62931;SDS011;49037;41.898;25.004;2023-02-15T15:07:08;14.35;;;7.55;;
62931;SDS011;49037;41.898;25.004;2023-02-15T15:09:35;12.05;;;6.72;;
62931;SDS011;49037;41.898;25.004;2023-02-15T15:14:53;14.77;;;6.47;;
62931;SDS011;49037;41.898;25.004;2023-02-15T15:19:58;16.40;;;8.13;;
62931;SDS011;49037;41.898;25.004;2023-02-15T15:22:25;11.27;;;5.65;;
62931;SDS011;49037;41.898;25.004;2023-02-15T15:32:51;13.88;;;7.45;;
62931;SDS011;49037;41.898;25.004;2023-02-15T15:49:59;15.18;;;6.35;;
62931;SDS011;49037;41.898;25.004;2023-02-15T15:52:26;18.25;;;7.75;;
62931;SDS011;49037;41.898;25.004;2023-02-15T15:54:55;10.82;;;6.03;;
62931;SDS011;49037;41.898;25.004;2023-02-15T15:59:52;13.38;;;6.82;;
62931;SDS011;49037;41.898;25.004;2023-02-15T16:02:19;11.57;;;5.70;;
62931;SDS011;49037;41.898;25.004;2023-02-15T16:04:45;12.32;;;6.18;;
62931;SDS011;49037;41.898;25.004;2023-02-15T16:07:33;10.15;;;4.80;;
62931;SDS011;49037;41.898;25.004;2023-02-15T16:09:59;12.50;;;5.88;;
62931;SDS011;49037;41.898;25.004;2023-02-15T16:12:27;11.93;;;5.93;;
62931;SDS011;49037;41.898;25.004;2023-02-15T16:14:55;11.43;;;5.93;;
62931;SDS011;49037;41.898;25.004;2023-02-15T16:17:25;12.20;;;7.03;;
62931;SDS011;49037;41.898;25.004;2023-02-15T16:19:56;15.05;;;6.78;;
62931;SDS011;49037;41.898;25.004;2023-02-15T16:22:28;12.68;;;6.55;;
62931;SDS011;49037;41.898;25.004;2023-02-15T16:27:43;31.17;;;11.80;;
62931;SDS011;49037;41.898;25.004;2023-02-15T16:30:32;22.10;;;10.18;;
62931;SDS011;49037;41.898;25.004;2023-02-15T16:33:07;20.33;;;9.18;;
62931;SDS011;49037;41.898;25.004;2023-02-15T16:35:34;11.30;;;6.10;;
62931;SDS011;49037;41.898;25.004;2023-02-15T16:38:02;19.77;;;10.85;;
62931;SDS011;49037;41.898;25.004;2023-02-15T16:40:34;11.23;;;7.10;;
62931;SDS011;49037;41.898;25.004;2023-02-15T16:43:06;16.10;;;7.65;;
62931;SDS011;49037;41.898;25.004;2023-02-15T16:45:39;14.95;;;8.10;;
62931;SDS011;49037;41.898;25.004;2023-02-15T16:48:06;13.68;;;6.20;;
62931;SDS011;49037;41.898;25.004;2023-02-15T16:50:37;9.32;;;4.80;;
62931;SDS011;49037;41.898;25.004;2023-02-15T16:53:04;10.45;;;4.57;;
62931;SDS011;49037;41.898;25.004;2023-02-15T16:55:35;9.07;;;5.40;;
62931;SDS011;49037;41.898;25.004;2023-02-15T16:58:04;7.70;;;3.85;;
62931;SDS011;49037;41.898;25.004;2023-02-15T17:00:32;9.48;;;5.32;;
62931;SDS011;49037;41.898;25.004;2023-02-15T17:03:03;11.48;;;6.10;;
62931;SDS011;49037;41.898;25.004;2023-02-15T17:05:42;10.90;;;6.18;;
62931;SDS011;49037;41.898;25.004;2023-02-15T17:13:36;12.32;;;5.75;;
62931;SDS011;49037;41.898;25.004;2023-02-15T17:18:31;71.63;;;21.83;;
62931;SDS011;49037;41.898;25.004;2023-02-15T17:21:10;12.73;;;5.82;;
62931;SDS011;49037;41.898;25.004;2023-02-15T17:23:49;12.40;;;6.25;;
62931;SDS011;49037;41.898;25.004;2023-02-15T17:26:21;17.92;;;6.32;;
62931;SDS011;49037;41.898;25.004;2023-02-15T17:31:39;8.90;;;4.55;;
62931;SDS011;49037;41.898;25.004;2023-02-15T17:34:05;9.60;;;5.50;;
62931;SDS011;49037;41.898;25.004;2023-02-15T17:36:31;13.40;;;6.18;;
62931;SDS011;49037;41.898;25.004;2023-02-15T17:41:31;12.32;;;5.72;;
62931;SDS011;49037;41.898;25.004;2023-02-15T17:43:59;8.80;;;5.25;;
62931;SDS011;49037;41.898;25.004;2023-02-15T17:46:24;7.70;;;4.00;;
62931;SDS011;49037;41.898;25.004;2023-02-15T17:48:53;10.40;;;5.35;;
62931;SDS011;49037;41.898;25.004;2023-02-15T17:51:21;9.68;;;4.93;;
62931;SDS011;49037;41.898;25.004;2023-02-15T17:53:47;6.25;;;3.83;;
62931;SDS011;49037;41.898;25.004;2023-02-15T17:56:32;10.88;;;5.00;;
62931;SDS011;49037;41.898;25.004;2023-02-15T17:58:58;11.38;;;5.65;;
62931;SDS011;49037;41.898;25.004;2023-02-15T18:01:24;11.48;;;4.80;;
62931;SDS011;49037;41.898;25.004;2023-02-15T18:04:08;12.88;;;5.22;;
62931;SDS011;49037;41.898;25.004;2023-02-15T18:06:54;17.95;;;6.57;;
62931;SDS011;49037;41.898;25.004;2023-02-15T18:09:39;15.07;;;6.45;;
62931;SDS011;49037;41.898;25.004;2023-02-15T18:12:24;15.35;;;6.63;;
62931;SDS011;49037;41.898;25.004;2023-02-15T18:14:51;13.70;;;5.47;;
62931;SDS011;49037;41.898;25.004;2023-02-15T18:17:18;11.30;;;5.13;;